createdAt,value
2019-03-22T00:04:04.117Z,8.43
2019-03-22T00:06:48.688Z,8.17
2019-03-22T00:10:00.010Z,6.70
2019-03-22T00:13:02.142Z,7.20
2019-03-22T00:15:34.010Z,7.60
2019-03-22T00:18:55.721Z,7.77
2019-03-22T00:21:28.080Z,8.60
2019-03-22T00:24:30.205Z,7.23
2019-03-22T00:27:32.164Z,8.80
2019-03-22T00:30:04.004Z,9.40
2019-03-22T00:35:59.124Z,9.13
2019-03-22T00:38:50.392Z,7.63
2019-03-22T00:41:41.567Z,8.40
2019-03-22T00:44:51.546Z,7.40
2019-03-22T00:50:27.272Z,7.00
2019-03-22T00:53:18.441Z,8.37
2019-03-22T01:05:02.361Z,8.23
2019-03-22T01:07:47.056Z,7.67
2019-03-22T01:10:21.782Z,8.80
2019-03-22T01:13:13.014Z,6.83
2019-03-22T01:16:22.989Z,6.97
2019-03-22T01:22:01.419Z,7.57
2019-03-22T01:27:49.360Z,7.83
2019-03-22T01:33:17.610Z,8.97
2019-03-22T01:35:51.430Z,7.80
2019-03-22T01:38:53.262Z,8.20
2019-03-22T01:41:26.214Z,8.50
2019-03-22T01:44:28.590Z,10.83
2019-03-22T01:50:03.282Z,10.07
2019-03-22T01:52:54.457Z,9.50
2019-03-22T01:58:43.108Z,8.93
2019-03-22T02:01:15.584Z,8.50
2019-03-22T02:04:06.774Z,7.97
2019-03-22T02:12:41.736Z,9.10
2019-03-22T02:18:29.389Z,8.50
2019-03-22T02:21:14.414Z,7.33
2019-03-22T02:23:48.625Z,7.17
2019-03-22T02:32:28.639Z,7.13
2019-03-22T02:35:28.998Z,7.67
2019-03-22T02:40:48.695Z,7.60
2019-03-22T02:43:50.508Z,7.60
2019-03-22T02:46:24.758Z,8.37
2019-03-22T02:52:14.257Z,6.70
2019-03-22T02:54:48.664Z,6.87
2019-03-22T03:00:25.414Z,6.73
2019-03-22T03:03:16.581Z,6.90
2019-03-22T03:06:20.522Z,7.30
2019-03-22T03:09:04.214Z,7.60
2019-03-22T03:11:49.081Z,7.00
2019-03-22T03:14:39.955Z,6.60
2019-03-22T03:17:31.399Z,6.20
2019-03-22T03:20:26.506Z,7.40
2019-03-22T03:23:11.743Z,6.40
2019-03-22T03:25:46.096Z,6.83
2019-03-22T03:28:39.269Z,7.30
2019-03-22T03:34:36.063Z,6.60
2019-03-22T03:48:30.700Z,7.57
2019-03-22T03:56:51.747Z,7.07
2019-03-22T03:59:42.948Z,7.10
2019-03-22T04:05:19.116Z,7.20
2019-03-22T04:08:29.082Z,6.20
2019-03-22T04:11:20.250Z,6.20
2019-03-22T04:17:06.314Z,6.30
2019-03-22T04:19:40.127Z,6.73
2019-03-22T04:25:16.207Z,6.23
2019-03-22T04:36:40.976Z,8.60
2019-03-22T04:39:32.189Z,10.60
2019-03-22T04:48:13.334Z,7.23
2019-03-22T05:00:20.718Z,7.83
2019-03-22T05:18:52.496Z,6.53
2019-03-22T05:27:59.796Z,8.43
2019-03-22T05:31:28.625Z,7.50
2019-03-22T05:34:19.354Z,7.70
2019-03-22T05:40:17.403Z,7.27
2019-03-22T05:43:02.920Z,7.80
2019-03-22T05:45:46.569Z,9.13
2019-03-22T05:51:03.577Z,8.23
2019-03-22T05:53:54.854Z,8.13
2019-03-22T05:56:46.135Z,8.57
2019-03-22T06:00:15.045Z,7.70
2019-03-22T06:05:53.574Z,7.00
2019-03-22T06:11:41.645Z,8.07
2019-03-22T06:14:25.078Z,7.57
2019-03-22T06:16:57.644Z,8.10
2019-03-22T06:22:34.906Z,7.30
2019-03-22T06:25:26.211Z,6.80
2019-03-22T06:28:28.637Z,7.10
2019-03-22T06:31:00.830Z,6.80
2019-03-22T06:33:52.071Z,6.30
2019-03-22T06:36:55.177Z,7.63
2019-03-22T06:42:15.857Z,6.97
2019-03-22T06:45:25.997Z,7.03
2019-03-22T06:54:58.082Z,9.40
2019-03-22T06:57:45.453Z,8.17
2019-03-22T07:03:21.475Z,11.87
2019-03-22T07:06:04.863Z,11.40
2019-03-22T07:08:57.615Z,9.53
2019-03-22T07:11:48.791Z,9.70
2019-03-22T07:17:29.989Z,11.33
2019-03-22T07:20:21.148Z,12.10
2019-03-22T07:23:23.656Z,11.07
2019-03-22T07:25:58.048Z,10.57
2019-03-22T07:29:00.262Z,11.33
2019-03-22T07:34:20.096Z,11.53
2019-03-22T07:37:11.386Z,11.07
2019-03-22T07:42:57.165Z,11.87
2019-03-22T07:48:13.198Z,10.60
2019-03-22T07:51:04.399Z,11.43
2019-03-22T08:02:25.648Z,13.07
2019-03-22T08:07:58.290Z,12.43
2019-03-22T08:10:30.427Z,14.70
2019-03-22T08:18:49.396Z,14.13
2019-03-22T08:21:51.900Z,13.93
2019-03-22T08:24:36.279Z,15.60
2019-03-22T08:27:22.181Z,14.33
2019-03-22T08:29:54.195Z,15.27
2019-03-22T08:32:45.369Z,16.43
2019-03-22T08:35:48.079Z,16.53
2019-03-22T08:38:22.556Z,16.57
2019-03-22T08:41:13.831Z,16.77
2019-03-22T08:47:04.127Z,16.70
2019-03-22T08:52:41.177Z,17.47
2019-03-22T08:55:43.754Z,17.13
2019-03-22T08:58:27.319Z,17.00
2019-03-22T09:01:18.773Z,16.00
2019-03-22T09:04:09.928Z,15.80
2019-03-22T09:07:11.975Z,16.30
2019-03-22T09:09:46.330Z,16.00
2019-03-22T09:12:48.058Z,16.43
2019-03-22T09:18:09.590Z,15.30
2019-03-22T09:29:16.521Z,17.07
2019-03-22T09:32:07.684Z,15.63
2019-03-22T09:37:43.607Z,16.23
2019-03-22T09:40:34.852Z,15.27
2019-03-22T09:43:16.831Z,17.17
2019-03-22T09:46:19.155Z,16.17
2019-03-22T09:48:52.689Z,17.67
2019-03-22T09:54:31.670Z,17.63
2019-03-22T09:57:22.917Z,17.23
2019-03-22T10:03:31.354Z,17.20
2019-03-22T10:06:04.013Z,18.70
2019-03-22T10:08:46.886Z,18.60
2019-03-22T10:11:39.500Z,18.33
2019-03-22T10:14:31.467Z,18.93
2019-03-22T10:20:19.734Z,18.20
2019-03-22T10:26:07.399Z,17.87
2019-03-22T10:28:52.258Z,19.03
2019-03-22T10:31:37.066Z,19.40
2019-03-22T10:37:08.505Z,17.47
2019-03-22T10:39:42.063Z,18.80
2019-03-22T10:42:52.052Z,18.67
2019-03-22T10:51:10.913Z,19.53
2019-03-22T10:54:13.438Z,19.73
2019-03-22T10:56:57.660Z,18.67
2019-03-22T10:59:30.665Z,19.03
2019-03-22T11:08:22.314Z,18.63
2019-03-22T11:14:01.649Z,19.37
2019-03-22T11:17:04.198Z,17.10
2019-03-22T11:19:49.668Z,16.97
2019-03-22T11:22:22.309Z,17.77
2019-03-22T11:25:33.781Z,17.93
2019-03-22T11:31:08.107Z,16.40
2019-03-22T11:34:11.584Z,17.33
2019-03-22T11:36:54.144Z,14.40
2019-03-22T11:39:28.152Z,16.30
2019-03-22T11:42:19.466Z,16.73
2019-03-22T11:51:35.047Z,13.00
2019-03-22T11:57:14.865Z,13.70
2019-03-22T12:00:37.927Z,15.70
2019-03-22T12:03:12.534Z,14.70
2019-03-22T12:08:47.462Z,17.67
2019-03-22T12:11:30.406Z,17.60
2019-03-22T12:14:14.521Z,17.00
2019-03-22T12:16:46.512Z,15.80
2019-03-22T12:19:48.723Z,16.43
2019-03-22T12:30:58.301Z,18.10
2019-03-22T12:39:17.037Z,16.90
2019-03-22T12:42:19.773Z,14.83
2019-03-22T12:45:04.790Z,15.50
2019-03-22T12:47:37.448Z,16.27
2019-03-22T12:50:58.689Z,15.20
2019-03-22T12:53:50.858Z,15.73
2019-03-22T12:56:42.001Z,15.97
2019-03-22T12:59:33.185Z,15.97
2019-03-22T13:02:04.999Z,15.50
2019-03-22T13:04:56.272Z,16.37
2019-03-22T13:07:47.555Z,15.80
2019-03-22T13:10:39.387Z,16.23
2019-03-22T13:19:13.661Z,14.70
2019-03-22T13:24:31.607Z,16.20
2019-03-22T13:27:42.010Z,15.70
2019-03-22T13:36:39.896Z,15.40
2019-03-22T13:39:32.477Z,14.80
2019-03-22T13:42:29.174Z,17.77
2019-03-22T13:45:19.162Z,15.67
2019-03-22T13:47:54.512Z,15.80
2019-03-22T13:50:45.717Z,15.97
2019-03-22T13:53:36.908Z,16.70
2019-03-22T13:56:28.129Z,16.13
2019-03-22T14:02:04.101Z,16.33
2019-03-22T14:05:14.139Z,15.90
2019-03-22T14:08:15.952Z,14.70
2019-03-22T14:11:00.755Z,13.60
2019-03-22T14:16:33.500Z,13.60
2019-03-22T14:19:18.739Z,14.37
2019-03-22T14:21:51.795Z,15.30
2019-03-22T14:24:54.035Z,14.57
2019-03-22T14:36:08.529Z,12.40
2019-03-22T14:38:53.539Z,13.93
2019-03-22T14:41:37.525Z,15.27
2019-03-22T14:44:11.003Z,13.93
2019-03-22T14:47:02.127Z,15.27
2019-03-22T14:49:53.265Z,13.50
2019-03-22T14:52:44.403Z,15.10
2019-03-22T14:55:35.596Z,15.07
2019-03-22T15:01:11.204Z,12.87
2019-03-22T15:07:06.111Z,14.37
2019-03-22T15:09:57.347Z,12.93
2019-03-22T15:16:10.436Z,12.77
2019-03-22T15:19:20.516Z,13.00
2019-03-22T15:22:22.255Z,13.10
2019-03-22T15:25:05.260Z,12.80
2019-03-22T15:30:42.102Z,12.43
2019-03-22T15:36:27.950Z,14.70
2019-03-22T15:47:33.158Z,12.87
2019-03-22T15:53:28.106Z,14.00
2019-03-22T15:56:02.904Z,13.63
2019-03-22T15:59:04.950Z,13.73
2019-03-22T16:01:48.970Z,12.93
2019-03-22T16:04:23.244Z,12.77
2019-03-22T16:07:25.721Z,12.97
2019-03-22T16:10:00.554Z,13.80
2019-03-22T16:12:43.485Z,13.57
2019-03-22T16:15:45.461Z,14.43
2019-03-22T16:18:20.398Z,14.60
2019-03-22T16:21:21.415Z,13.40
2019-03-22T16:27:26.229Z,16.60
2019-03-22T16:30:17.176Z,20.60
2019-03-22T16:33:19.902Z,16.03
2019-03-22T16:36:03.757Z,16.93
2019-03-22T16:41:31.876Z,13.90
2019-03-22T16:44:05.080Z,13.87
2019-03-22T16:46:43.853Z,13.87
2019-03-22T16:52:22.346Z,15.40
2019-03-22T16:55:33.970Z,14.70
2019-03-22T16:58:25.167Z,14.33
2019-03-22T17:04:20.477Z,14.40
2019-03-22T17:07:11.689Z,13.83
2019-03-22T17:10:23.491Z,26.13
2019-03-22T17:13:04.819Z,22.47
2019-03-22T17:15:55.978Z,17.50
2019-03-22T17:19:05.994Z,17.37
2019-03-22T17:21:57.227Z,16.70
2019-03-22T17:24:59.275Z,16.57
2019-03-22T17:27:42.757Z,16.33
2019-03-22T17:30:26.353Z,16.27
2019-03-22T17:32:58.796Z,17.40
2019-03-22T17:35:50.042Z,16.90
2019-03-22T17:41:44.713Z,17.17
2019-03-22T17:44:35.945Z,16.77
2019-03-22T17:47:38.268Z,16.23
2019-03-22T17:53:18.054Z,15.17
2019-03-22T17:56:19.955Z,15.00
2019-03-22T17:59:04.580Z,13.40
2019-03-22T18:01:38.255Z,13.63
2019-03-22T18:04:40.501Z,14.07
2019-03-22T18:07:13.973Z,15.20
2019-03-22T18:13:20.581Z,13.63
2019-03-22T18:16:04.499Z,14.93
2019-03-22T18:18:38.022Z,15.67
2019-03-22T18:21:40.591Z,14.50
2019-03-22T18:24:14.001Z,13.70
2019-03-22T18:27:05.193Z,13.50
2019-03-22T18:29:56.437Z,12.93
2019-03-22T18:32:47.666Z,11.60
2019-03-22T18:35:19.583Z,11.70
2019-03-22T18:38:22.139Z,10.90
2019-03-22T18:43:40.054Z,11.10
2019-03-22T18:49:24.696Z,11.10
2019-03-22T18:52:17.926Z,11.73
2019-03-22T18:58:15.969Z,10.63
2019-03-22T19:01:18.312Z,11.10
2019-03-22T19:03:52.685Z,10.07
2019-03-22T19:06:44.098Z,10.60
2019-03-22T19:09:46.730Z,11.10
2019-03-22T19:12:20.339Z,10.73
2019-03-22T19:15:23.945Z,10.37
2019-03-22T19:18:06.428Z,11.97
2019-03-22T19:20:38.315Z,10.17
2019-03-22T19:26:14.422Z,9.60
2019-03-22T19:29:05.567Z,10.90
2019-03-22T19:31:56.703Z,10.60
2019-03-22T19:34:54.304Z,10.37
2019-03-22T19:37:31.392Z,11.70
2019-03-22T19:40:22.797Z,11.13
2019-03-22T19:43:24.727Z,11.83
2019-03-22T19:46:10.893Z,10.30
2019-03-22T19:48:54.017Z,11.20
2019-03-22T19:51:28.275Z,11.20
2019-03-22T19:54:19.447Z,13.00
2019-03-22T19:57:10.795Z,12.70
2019-03-22T20:00:20.784Z,12.20
2019-03-22T20:05:56.313Z,11.10
2019-03-22T20:08:47.684Z,11.17
2019-03-22T20:14:34.521Z,11.07
2019-03-22T20:17:08.473Z,11.27
2019-03-22T20:20:10.378Z,12.03
2019-03-22T20:25:40.783Z,11.90
2019-03-22T20:28:25.801Z,10.63
2019-03-22T20:31:17.310Z,12.00
2019-03-22T20:36:53.675Z,42.40
2019-03-22T20:42:31.654Z,13.47
2019-03-22T20:45:24.328Z,11.93
2019-03-22T20:48:17.491Z,11.60
2019-03-22T20:51:02.768Z,12.60
2019-03-22T20:53:46.649Z,12.37
2019-03-22T21:02:07.023Z,11.83
2019-03-22T21:04:50.027Z,10.10
2019-03-22T21:13:19.581Z,11.80
2019-03-22T21:16:10.986Z,31.17
2019-03-22T21:21:47.999Z,11.13
2019-03-22T21:27:33.533Z,12.43
2019-03-22T21:33:12.748Z,11.93
2019-03-22T21:36:03.927Z,12.13
2019-03-22T21:38:55.145Z,12.00
2019-03-22T21:41:46.243Z,12.63
2019-03-22T21:44:37.504Z,12.57
2019-03-22T21:47:58.984Z,12.90
2019-03-22T21:58:55.447Z,13.20
2019-03-22T22:01:48.842Z,12.30
2019-03-22T22:04:58.947Z,13.80
2019-03-22T22:08:09.056Z,16.50
2019-03-22T22:13:43.951Z,14.50
2019-03-22T22:16:35.217Z,13.90
2019-03-22T22:22:22.327Z,12.63
2019-03-22T22:24:56.130Z,12.37
2019-03-22T22:27:59.735Z,13.40
2019-03-22T22:30:43.735Z,14.50
2019-03-22T22:33:17.153Z,12.80
2019-03-22T22:36:18.887Z,12.70
2019-03-22T22:39:12.010Z,12.73
2019-03-22T22:44:48.304Z,12.00
2019-03-22T22:47:58.420Z,12.87
2019-03-22T22:50:59.647Z,13.10
2019-03-22T22:53:32.100Z,11.60
2019-03-22T22:56:42.077Z,12.30
2019-03-22T22:59:14.291Z,14.70
2019-03-22T23:02:05.480Z,14.10
2019-03-22T23:05:15.452Z,13.43
2019-03-22T23:08:18.086Z,12.90
2019-03-22T23:16:20.449Z,13.20
2019-03-22T23:19:23.119Z,12.50
2019-03-22T23:21:56.464Z,11.77
2019-03-22T23:27:51.457Z,15.40
2019-03-22T23:36:19.776Z,14.60
2019-03-22T23:39:13.990Z,14.83
2019-03-22T23:42:05.220Z,15.27
2019-03-22T23:45:15.222Z,16.30
2019-03-22T23:48:06.375Z,15.60
2019-03-22T23:50:57.536Z,15.97
2019-03-22T23:56:44.409Z,16.57
2019-03-22T23:59:28.204Z,18.07
